sensor_id;sensor_type;location;lat;lon;timestamp;P1;durP1;ratioP1;P2;durP2;ratioP2
69401;SDS011;56589;51.992;5.924;2023-04-03T00:01:23;5.75;;;1.95;;
69401;SDS011;56589;51.992;5.924;2023-04-03T00:03:48;2.03;;;1.38;;
69401;SDS011;56589;51.992;5.924;2023-04-03T00:06:14;6.00;;;1.45;;
69401;SDS011;56589;51.992;5.924;2023-04-03T00:08:43;2.28;;;0.80;;
69401;SDS011;56589;51.992;5.924;2023-04-03T00:11:09;3.58;;;1.45;;
69401;SDS011;56589;51.992;5.924;2023-04-03T00:13:35;2.97;;;1.15;;
69401;SDS011;56589;51.992;5.924;2023-04-03T00:16:03;2.63;;;1.10;;
69401;SDS011;56589;51.992;5.924;2023-04-03T00:18:30;3.60;;;1.35;;
69401;SDS011;56589;51.992;5.924;2023-04-03T00:20:56;2.63;;;1.10;;
69401;SDS011;56589;51.992;5.924;2023-04-03T00:23:25;3.40;;;0.90;;
69401;SDS011;56589;51.992;5.924;2023-04-03T00:25:54;4.00;;;1.30;;
69401;SDS011;56589;51.992;5.924;2023-04-03T00:28:19;3.33;;;1.05;;
69401;SDS011;56589;51.992;5.924;2023-04-03T00:30:45;3.28;;;1.20;;
69401;SDS011;56589;51.992;5.924;2023-04-03T00:33:13;3.55;;;1.30;;
69401;SDS011;56589;51.992;5.924;2023-04-03T00:35:39;5.18;;;1.73;;
69401;SDS011;56589;51.992;5.924;2023-04-03T00:38:05;4.55;;;1.35;;
69401;SDS011;56589;51.992;5.924;2023-04-03T00:40:33;8.25;;;2.03;;
69401;SDS011;56589;51.992;5.924;2023-04-03T00:43:05;5.53;;;1.33;;
69401;SDS011;56589;51.992;5.924;2023-04-03T00:45:39;3.17;;;1.25;;
69401;SDS011;56589;51.992;5.924;2023-04-03T00:48:07;3.13;;;1.05;;
69401;SDS011;56589;51.992;5.924;2023-04-03T00:50:39;4.20;;;1.60;;
69401;SDS011;56589;51.992;5.924;2023-04-03T00:53:08;4.72;;;1.55;;
69401;SDS011;56589;51.992;5.924;2023-04-03T00:55:40;2.35;;;1.50;;
69401;SDS011;56589;51.992;5.924;2023-04-03T00:58:11;2.50;;;1.00;;
69401;SDS011;56589;51.992;5.924;2023-04-03T01:00:40;4.25;;;1.75;;
69401;SDS011;56589;51.992;5.924;2023-04-03T01:03:14;2.85;;;1.20;;
69401;SDS011;56589;51.992;5.924;2023-04-03T01:05:40;4.05;;;1.05;;
69401;SDS011;56589;51.992;5.924;2023-04-03T01:08:06;4.32;;;1.58;;
69401;SDS011;56589;51.992;5.924;2023-04-03T01:10:32;4.22;;;1.30;;
69401;SDS011;56589;51.992;5.924;2023-04-03T01:12:58;6.28;;;1.50;;
69401;SDS011;56589;51.992;5.924;2023-04-03T01:15:28;7.43;;;1.33;;
69401;SDS011;56589;51.992;5.924;2023-04-03T01:17:56;2.75;;;1.30;;
69401;SDS011;56589;51.992;5.924;2023-04-03T01:20:34;3.47;;;1.40;;
69401;SDS011;56589;51.992;5.924;2023-04-03T01:23:28;3.90;;;1.23;;
69401;SDS011;56589;51.992;5.924;2023-04-03T01:26:10;3.85;;;1.40;;
69401;SDS011;56589;51.992;5.924;2023-04-03T01:28:37;3.88;;;1.20;;
69401;SDS011;56589;51.992;5.924;2023-04-03T01:31:08;3.03;;;1.08;;
69401;SDS011;56589;51.992;5.924;2023-04-03T01:33:47;4.32;;;1.30;;
69401;SDS011;56589;51.992;5.924;2023-04-03T01:36:16;1.83;;;1.20;;
69401;SDS011;56589;51.992;5.924;2023-04-03T01:38:45;3.50;;;1.23;;
69401;SDS011;56589;51.992;5.924;2023-04-03T01:41:10;3.55;;;1.20;;
69401;SDS011;56589;51.992;5.924;2023-04-03T01:43:37;2.38;;;0.95;;
69401;SDS011;56589;51.992;5.924;2023-04-03T01:46:02;2.03;;;1.02;;
69401;SDS011;56589;51.992;5.924;2023-04-03T01:48:28;3.28;;;1.30;;
69401;SDS011;56589;51.992;5.924;2023-04-03T01:50:57;2.90;;;1.30;;
69401;SDS011;56589;51.992;5.924;2023-04-03T01:53:23;4.07;;;1.30;;
69401;SDS011;56589;51.992;5.924;2023-04-03T01:55:48;3.97;;;1.35;;
69401;SDS011;56589;51.992;5.924;2023-04-03T01:58:14;4.93;;;1.27;;
69401;SDS011;56589;51.992;5.924;2023-04-03T02:00:40;4.15;;;2.03;;
69401;SDS011;56589;51.992;5.924;2023-04-03T02:03:06;7.40;;;1.50;;
69401;SDS011;56589;51.992;5.924;2023-04-03T02:05:32;5.63;;;1.60;;
69401;SDS011;56589;51.992;5.924;2023-04-03T02:08:00;2.95;;;1.40;;
69401;SDS011;56589;51.992;5.924;2023-04-03T02:10:26;9.35;;;1.80;;
69401;SDS011;56589;51.992;5.924;2023-04-03T02:12:52;2.58;;;1.23;;
69401;SDS011;56589;51.992;5.924;2023-04-03T02:15:18;4.47;;;1.45;;
69401;SDS011;56589;51.992;5.924;2023-04-03T02:17:44;3.28;;;1.00;;
69401;SDS011;56589;51.992;5.924;2023-04-03T02:20:10;5.03;;;1.80;;
69401;SDS011;56589;51.992;5.924;2023-04-03T02:22:36;4.65;;;1.48;;
69401;SDS011;56589;51.992;5.924;2023-04-03T02:25:05;5.50;;;1.30;;
69401;SDS011;56589;51.992;5.924;2023-04-03T02:27:33;5.93;;;1.30;;
69401;SDS011;56589;51.992;5.924;2023-04-03T02:29:58;4.57;;;1.33;;
69401;SDS011;56589;51.992;5.924;2023-04-03T02:32:24;2.40;;;1.17;;
69401;SDS011;56589;51.992;5.924;2023-04-03T02:34:50;6.82;;;1.58;;
69401;SDS011;56589;51.992;5.924;2023-04-03T02:37:16;3.58;;;1.15;;
69401;SDS011;56589;51.992;5.924;2023-04-03T02:39:42;5.78;;;1.40;;
69401;SDS011;56589;51.992;5.924;2023-04-03T02:42:10;4.22;;;1.10;;
69401;SDS011;56589;51.992;5.924;2023-04-03T02:44:36;3.10;;;1.40;;
69401;SDS011;56589;51.992;5.924;2023-04-03T02:47:02;6.20;;;1.45;;
69401;SDS011;56589;51.992;5.924;2023-04-03T02:49:28;4.75;;;1.70;;
69401;SDS011;56589;51.992;5.924;2023-04-03T02:51:54;4.30;;;1.30;;
69401;SDS011;56589;51.992;5.924;2023-04-03T02:54:20;3.40;;;1.25;;
69401;SDS011;56589;51.992;5.924;2023-04-03T02:56:45;5.38;;;1.73;;
69401;SDS011;56589;51.992;5.924;2023-04-03T02:59:14;5.95;;;1.70;;
69401;SDS011;56589;51.992;5.924;2023-04-03T03:01:43;7.72;;;1.60;;
69401;SDS011;56589;51.992;5.924;2023-04-03T03:04:09;3.28;;;1.10;;
69401;SDS011;56589;51.992;5.924;2023-04-03T03:06:37;3.47;;;1.63;;
69401;SDS011;56589;51.992;5.924;2023-04-03T03:09:03;4.28;;;1.35;;
69401;SDS011;56589;51.992;5.924;2023-04-03T03:11:29;3.17;;;1.20;;
69401;SDS011;56589;51.992;5.924;2023-04-03T03:13:55;7.43;;;1.40;;
69401;SDS011;56589;51.992;5.924;2023-04-03T03:16:23;7.25;;;1.95;;
69401;SDS011;56589;51.992;5.924;2023-04-03T03:18:49;5.85;;;1.45;;
69401;SDS011;56589;51.992;5.924;2023-04-03T03:21:15;2.60;;;1.20;;
69401;SDS011;56589;51.992;5.924;2023-04-03T03:23:41;5.22;;;1.50;;
69401;SDS011;56589;51.992;5.924;2023-04-03T03:26:07;5.85;;;1.60;;
69401;SDS011;56589;51.992;5.924;2023-04-03T03:28:36;4.32;;;1.40;;
69401;SDS011;56589;51.992;5.924;2023-04-03T03:31:03;5.60;;;1.63;;
69401;SDS011;56589;51.992;5.924;2023-04-03T03:33:33;4.20;;;1.40;;
69401;SDS011;56589;51.992;5.924;2023-04-03T03:36:02;4.30;;;1.45;;
69401;SDS011;56589;51.992;5.924;2023-04-03T03:38:28;2.92;;;1.20;;
69401;SDS011;56589;51.992;5.924;2023-04-03T03:40:54;5.90;;;1.70;;
69401;SDS011;56589;51.992;5.924;2023-04-03T03:43:20;3.72;;;1.30;;
69401;SDS011;56589;51.992;5.924;2023-04-03T03:45:48;5.03;;;1.30;;
69401;SDS011;56589;51.992;5.924;2023-04-03T03:48:16;4.10;;;1.83;;
69401;SDS011;56589;51.992;5.924;2023-04-03T03:50:44;6.10;;;1.52;;
69401;SDS011;56589;51.992;5.924;2023-04-03T03:53:10;5.43;;;1.40;;
69401;SDS011;56589;51.992;5.924;2023-04-03T03:55:36;4.60;;;1.40;;
69401;SDS011;56589;51.992;5.924;2023-04-03T03:58:01;6.03;;;1.63;;
69401;SDS011;56589;51.992;5.924;2023-04-03T04:00:27;4.68;;;1.50;;
69401;SDS011;56589;51.992;5.924;2023-04-03T04:02:53;6.55;;;1.75;;
69401;SDS011;56589;51.992;5.924;2023-04-03T04:05:19;6.50;;;1.90;;
69401;SDS011;56589;51.992;5.924;2023-04-03T04:07:47;6.57;;;1.70;;
69401;SDS011;56589;51.992;5.924;2023-04-03T04:10:14;5.55;;;1.33;;
69401;SDS011;56589;51.992;5.924;2023-04-03T04:12:41;6.03;;;1.60;;
69401;SDS011;56589;51.992;5.924;2023-04-03T04:15:08;5.13;;;1.60;;
69401;SDS011;56589;51.992;5.924;2023-04-03T04:17:35;6.07;;;2.10;;
69401;SDS011;56589;51.992;5.924;2023-04-03T04:20:01;3.85;;;1.42;;
69401;SDS011;56589;51.992;5.924;2023-04-03T04:22:27;6.40;;;1.90;;
69401;SDS011;56589;51.992;5.924;2023-04-03T04:24:56;3.83;;;1.45;;
69401;SDS011;56589;51.992;5.924;2023-04-03T04:27:22;6.80;;;1.85;;
69401;SDS011;56589;51.992;5.924;2023-04-03T04:29:48;6.85;;;1.58;;
69401;SDS011;56589;51.992;5.924;2023-04-03T04:32:14;5.35;;;1.52;;
69401;SDS011;56589;51.992;5.924;2023-04-03T04:34:39;3.03;;;1.75;;
69401;SDS011;56589;51.992;5.924;2023-04-03T04:37:05;5.07;;;1.42;;
69401;SDS011;56589;51.992;5.924;2023-04-03T04:39:31;5.45;;;1.77;;
69401;SDS011;56589;51.992;5.924;2023-04-03T04:42:00;3.33;;;1.75;;
69401;SDS011;56589;51.992;5.924;2023-04-03T04:44:25;4.85;;;1.65;;
69401;SDS011;56589;51.992;5.924;2023-04-03T04:46:51;8.02;;;1.63;;
69401;SDS011;56589;51.992;5.924;2023-04-03T04:49:17;4.80;;;1.58;;
69401;SDS011;56589;51.992;5.924;2023-04-03T04:51:43;4.90;;;1.77;;
69401;SDS011;56589;51.992;5.924;2023-04-03T04:54:09;4.93;;;1.40;;
69401;SDS011;56589;51.992;5.924;2023-04-03T04:56:35;5.97;;;1.80;;
69401;SDS011;56589;51.992;5.924;2023-04-03T04:59:03;3.50;;;1.77;;
69401;SDS011;56589;51.992;5.924;2023-04-03T05:01:29;6.10;;;1.38;;
69401;SDS011;56589;51.992;5.924;2023-04-03T05:03:55;8.73;;;1.67;;
69401;SDS011;56589;51.992;5.924;2023-04-03T05:06:21;5.13;;;1.48;;
69401;SDS011;56589;51.992;5.924;2023-04-03T05:08:47;5.13;;;1.58;;
69401;SDS011;56589;51.992;5.924;2023-04-03T05:11:13;4.50;;;1.60;;
69401;SDS011;56589;51.992;5.924;2023-04-03T05:13:38;5.10;;;1.40;;
69401;SDS011;56589;51.992;5.924;2023-04-03T05:16:07;3.42;;;1.55;;
69401;SDS011;56589;51.992;5.924;2023-04-03T05:18:33;7.63;;;1.40;;
69401;SDS011;56589;51.992;5.924;2023-04-03T05:20:58;6.57;;;1.90;;
69401;SDS011;56589;51.992;5.924;2023-04-03T05:23:24;8.65;;;1.45;;
69401;SDS011;56589;51.992;5.924;2023-04-03T05:25:50;5.18;;;1.50;;
69401;SDS011;56589;51.992;5.924;2023-04-03T05:28:18;6.03;;;1.40;;
69401;SDS011;56589;51.992;5.924;2023-04-03T05:30:44;2.42;;;1.30;;
69401;SDS011;56589;51.992;5.924;2023-04-03T05:33:13;7.50;;;1.40;;
69401;SDS011;56589;51.992;5.924;2023-04-03T05:35:38;6.00;;;1.45;;
69401;SDS011;56589;51.992;5.924;2023-04-03T05:38:04;8.55;;;1.50;;
69401;SDS011;56589;51.992;5.924;2023-04-03T05:40:30;6.43;;;1.77;;
69401;SDS011;56589;51.992;5.924;2023-04-03T05:42:56;9.57;;;1.90;;
69401;SDS011;56589;51.992;5.924;2023-04-03T05:45:22;8.65;;;1.40;;
69401;SDS011;56589;51.992;5.924;2023-04-03T05:47:48;4.70;;;1.35;;
69401;SDS011;56589;51.992;5.924;2023-04-03T05:50:16;6.72;;;1.30;;
69401;SDS011;56589;51.992;5.924;2023-04-03T05:52:43;8.70;;;1.30;;
69401;SDS011;56589;51.992;5.924;2023-04-03T05:55:13;5.55;;;1.10;;
69401;SDS011;56589;51.992;5.924;2023-04-03T05:57:40;7.75;;;1.27;;
69401;SDS011;56589;51.992;5.924;2023-04-03T06:00:07;5.85;;;1.40;;
69401;SDS011;56589;51.992;5.924;2023-04-03T06:02:40;4.45;;;1.33;;
69401;SDS011;56589;51.992;5.924;2023-04-03T06:05:08;4.30;;;1.50;;
69401;SDS011;56589;51.992;5.924;2023-04-03T06:07:36;2.75;;;1.23;;
69401;SDS011;56589;51.992;5.924;2023-04-03T06:10:03;6.28;;;1.45;;
69401;SDS011;56589;51.992;5.924;2023-04-03T06:12:31;5.47;;;2.13;;
69401;SDS011;56589;51.992;5.924;2023-04-03T06:14:57;4.40;;;1.38;;
69401;SDS011;56589;51.992;5.924;2023-04-03T06:17:23;4.88;;;1.40;;
69401;SDS011;56589;51.992;5.924;2023-04-03T06:19:49;4.47;;;1.20;;
69401;SDS011;56589;51.992;5.924;2023-04-03T06:22:14;5.80;;;1.45;;
69401;SDS011;56589;51.992;5.924;2023-04-03T06:24:43;4.05;;;1.55;;
69401;SDS011;56589;51.992;5.924;2023-04-03T06:27:09;5.50;;;1.33;;
69401;SDS011;56589;51.992;5.924;2023-04-03T06:29:36;3.22;;;1.30;;
69401;SDS011;56589;51.992;5.924;2023-04-03T06:32:01;3.22;;;1.10;;
69401;SDS011;56589;51.992;5.924;2023-04-03T06:34:27;3.78;;;1.17;;
69401;SDS011;56589;51.992;5.924;2023-04-03T06:36:53;5.00;;;1.60;;
69401;SDS011;56589;51.992;5.924;2023-04-03T06:39:20;4.45;;;1.33;;
69401;SDS011;56589;51.992;5.924;2023-04-03T06:41:49;4.45;;;1.30;;
69401;SDS011;56589;51.992;5.924;2023-04-03T06:44:15;4.70;;;1.80;;
69401;SDS011;56589;51.992;5.924;2023-04-03T06:46:41;2.90;;;1.27;;
69401;SDS011;56589;51.992;5.924;2023-04-03T06:49:08;4.00;;;1.30;;
69401;SDS011;56589;51.992;5.924;2023-04-03T06:51:35;4.63;;;1.42;;
69401;SDS011;56589;51.992;5.924;2023-04-03T06:54:02;5.13;;;1.23;;
69401;SDS011;56589;51.992;5.924;2023-04-03T06:56:30;6.43;;;1.40;;
69401;SDS011;56589;51.992;5.924;2023-04-03T06:58:58;7.70;;;1.58;;
69401;SDS011;56589;51.992;5.924;2023-04-03T07:01:25;4.22;;;1.42;;
69401;SDS011;56589;51.992;5.924;2023-04-03T07:03:53;4.15;;;1.52;;
69401;SDS011;56589;51.992;5.924;2023-04-03T07:06:20;5.60;;;1.60;;
69401;SDS011;56589;51.992;5.924;2023-04-03T07:08:46;5.45;;;1.33;;
69401;SDS011;56589;51.992;5.924;2023-04-03T07:11:12;3.63;;;1.10;;
69401;SDS011;56589;51.992;5.924;2023-04-03T07:13:38;6.13;;;1.17;;
69401;SDS011;56589;51.992;5.924;2023-04-03T07:16:08;3.22;;;1.35;;
69401;SDS011;56589;51.992;5.924;2023-04-03T07:18:34;6.18;;;1.30;;
69401;SDS011;56589;51.992;5.924;2023-04-03T07:21:01;4.07;;;1.20;;
69401;SDS011;56589;51.992;5.924;2023-04-03T07:23:28;6.55;;;1.50;;
69401;SDS011;56589;51.992;5.924;2023-04-03T07:25:55;8.05;;;2.00;;
69401;SDS011;56589;51.992;5.924;2023-04-03T07:28:21;3.05;;;0.90;;
69401;SDS011;56589;51.992;5.924;2023-04-03T07:30:48;3.30;;;1.33;;
69401;SDS011;56589;51.992;5.924;2023-04-03T07:33:19;4.57;;;1.55;;
69401;SDS011;56589;51.992;5.924;2023-04-03T07:35:47;3.08;;;1.30;;
69401;SDS011;56589;51.992;5.924;2023-04-03T07:38:13;5.63;;;1.30;;
69401;SDS011;56589;51.992;5.924;2023-04-03T07:40:39;4.35;;;1.70;;
69401;SDS011;56589;51.992;5.924;2023-04-03T07:43:10;5.05;;;1.60;;
69401;SDS011;56589;51.992;5.924;2023-04-03T07:45:35;5.03;;;1.33;;
69401;SDS011;56589;51.992;5.924;2023-04-03T07:48:01;9.27;;;1.55;;
69401;SDS011;56589;51.992;5.924;2023-04-03T07:50:31;4.50;;;1.35;;
69401;SDS011;56589;51.992;5.924;2023-04-03T07:52:56;2.60;;;1.10;;
69401;SDS011;56589;51.992;5.924;2023-04-03T07:55:22;3.80;;;1.30;;
69401;SDS011;56589;51.992;5.924;2023-04-03T07:57:48;4.55;;;1.40;;
69401;SDS011;56589;51.992;5.924;2023-04-03T08:00:14;4.70;;;1.50;;
69401;SDS011;56589;51.992;5.924;2023-04-03T08:02:41;3.63;;;1.52;;
69401;SDS011;56589;51.992;5.924;2023-04-03T08:05:07;3.83;;;0.85;;
69401;SDS011;56589;51.992;5.924;2023-04-03T08:07:36;5.35;;;1.20;;
69401;SDS011;56589;51.992;5.924;2023-04-03T08:10:03;3.28;;;1.15;;
69401;SDS011;56589;51.992;5.924;2023-04-03T08:12:30;4.18;;;1.10;;
69401;SDS011;56589;51.992;5.924;2023-04-03T08:14:56;2.50;;;0.90;;
69401;SDS011;56589;51.992;5.924;2023-04-03T08:17:22;2.05;;;1.08;;
69401;SDS011;56589;51.992;5.924;2023-04-03T08:19:47;3.72;;;0.82;;
69401;SDS011;56589;51.992;5.924;2023-04-03T08:22:13;2.05;;;0.77;;
69401;SDS011;56589;51.992;5.924;2023-04-03T08:24:42;3.15;;;0.90;;
69401;SDS011;56589;51.992;5.924;2023-04-03T08:27:07;2.85;;;1.05;;
69401;SDS011;56589;51.992;5.924;2023-04-03T08:29:33;5.80;;;1.30;;
69401;SDS011;56589;51.992;5.924;2023-04-03T08:31:59;3.47;;;0.98;;
69401;SDS011;56589;51.992;5.924;2023-04-03T08:34:25;3.88;;;1.00;;
69401;SDS011;56589;51.992;5.924;2023-04-03T08:36:51;2.17;;;0.75;;
69401;SDS011;56589;51.992;5.924;2023-04-03T08:39:17;4.75;;;0.85;;
69401;SDS011;56589;51.992;5.924;2023-04-03T08:41:45;1.15;;;0.60;;
69401;SDS011;56589;51.992;5.924;2023-04-03T08:44:15;3.00;;;0.90;;
69401;SDS011;56589;51.992;5.924;2023-04-03T08:46:56;3.65;;;0.75;;
69401;SDS011;56589;51.992;5.924;2023-04-03T08:49:37;1.65;;;0.52;;
69401;SDS011;56589;51.992;5.924;2023-04-03T08:52:08;2.60;;;0.60;;
69401;SDS011;56589;51.992;5.924;2023-04-03T08:54:40;1.83;;;0.70;;
69401;SDS011;56589;51.992;5.924;2023-04-03T08:57:20;2.92;;;0.60;;
69401;SDS011;56589;51.992;5.924;2023-04-03T08:59:54;3.38;;;0.60;;
69401;SDS011;56589;51.992;5.924;2023-04-03T09:02:25;3.38;;;0.70;;
69401;SDS011;56589;51.992;5.924;2023-04-03T09:04:58;1.20;;;0.60;;
69401;SDS011;56589;51.992;5.924;2023-04-03T09:07:30;3.17;;;1.08;;
69401;SDS011;56589;51.992;5.924;2023-04-03T09:10:04;1.40;;;0.40;;
69401;SDS011;56589;51.992;5.924;2023-04-03T09:12:39;1.13;;;0.55;;
69401;SDS011;56589;51.992;5.924;2023-04-03T09:15:18;0.65;;;0.38;;
69401;SDS011;56589;51.992;5.924;2023-04-03T09:17:49;2.80;;;0.45;;
69401;SDS011;56589;51.992;5.924;2023-04-03T09:20:29;1.02;;;0.40;;
69401;SDS011;56589;51.992;5.924;2023-04-03T09:23:12;1.35;;;0.55;;
69401;SDS011;56589;51.992;5.924;2023-04-03T09:25:47;1.77;;;0.57;;
69401;SDS011;56589;51.992;5.924;2023-04-03T09:28:18;2.65;;;0.40;;
69401;SDS011;56589;51.992;5.924;2023-04-03T09:30:44;1.00;;;0.50;;
69401;SDS011;56589;51.992;5.924;2023-04-03T09:33:10;1.70;;;0.80;;
69401;SDS011;56589;51.992;5.924;2023-04-03T09:35:38;1.38;;;0.40;;
69401;SDS011;56589;51.992;5.924;2023-04-03T09:38:17;2.38;;;0.70;;
69401;SDS011;56589;51.992;5.924;2023-04-03T09:40:46;3.00;;;0.63;;
69401;SDS011;56589;51.992;5.924;2023-04-03T09:43:25;0.88;;;0.38;;
69401;SDS011;56589;51.992;5.924;2023-04-03T09:45:54;0.40;;;0.30;;
69401;SDS011;56589;51.992;5.924;2023-04-03T09:48:40;3.80;;;0.50;;
69401;SDS011;56589;51.992;5.924;2023-04-03T09:51:17;1.05;;;0.30;;
69401;SDS011;56589;51.992;5.924;2023-04-03T09:53:43;2.80;;;0.50;;
69401;SDS011;56589;51.992;5.924;2023-04-03T09:56:18;1.45;;;0.40;;
69401;SDS011;56589;51.992;5.924;2023-04-03T09:58:51;1.00;;;0.32;;
69401;SDS011;56589;51.992;5.924;2023-04-03T10:01:33;1.10;;;0.30;;
69401;SDS011;56589;51.992;5.924;2023-04-03T10:04:07;0.80;;;0.25;;
69401;SDS011;56589;51.992;5.924;2023-04-03T10:06:36;1.98;;;0.60;;
69401;SDS011;56589;51.992;5.924;2023-04-03T10:09:06;2.90;;;0.85;;
69401;SDS011;56589;51.992;5.924;2023-04-03T10:11:47;2.42;;;0.55;;
69401;SDS011;56589;51.992;5.924;2023-04-03T10:14:27;0.80;;;0.50;;
69401;SDS011;56589;51.992;5.924;2023-04-03T10:16:56;1.30;;;0.50;;
69401;SDS011;56589;51.992;5.924;2023-04-03T10:19:39;3.38;;;0.80;;
69401;SDS011;56589;51.992;5.924;2023-04-03T10:22:15;2.35;;;0.60;;
69401;SDS011;56589;51.992;5.924;2023-04-03T10:24:50;1.85;;;0.65;;
69401;SDS011;56589;51.992;5.924;2023-04-03T10:27:30;1.25;;;0.55;;
69401;SDS011;56589;51.992;5.924;2023-04-03T10:30:17;4.55;;;0.75;;
69401;SDS011;56589;51.992;5.924;2023-04-03T10:33:05;1.85;;;0.70;;
69401;SDS011;56589;51.992;5.924;2023-04-03T10:35:50;1.17;;;0.50;;
69401;SDS011;56589;51.992;5.924;2023-04-03T10:38:33;1.75;;;0.57;;
69401;SDS011;56589;51.992;5.924;2023-04-03T10:41:15;2.13;;;0.82;;
69401;SDS011;56589;51.992;5.924;2023-04-03T10:43:55;2.05;;;0.70;;
69401;SDS011;56589;51.992;5.924;2023-04-03T10:46:41;3.67;;;0.70;;
69401;SDS011;56589;51.992;5.924;2023-04-03T10:49:17;1.55;;;0.63;;
69401;SDS011;56589;51.992;5.924;2023-04-03T10:52:05;1.45;;;0.60;;
69401;SDS011;56589;51.992;5.924;2023-04-03T10:54:39;1.70;;;0.65;;
69401;SDS011;56589;51.992;5.924;2023-04-03T10:57:14;1.00;;;0.50;;
69401;SDS011;56589;51.992;5.924;2023-04-03T10:59:41;2.13;;;0.93;;
69401;SDS011;56589;51.992;5.924;2023-04-03T11:02:16;0.82;;;0.55;;
69401;SDS011;56589;51.992;5.924;2023-04-03T11:04:53;2.40;;;0.80;;
69401;SDS011;56589;51.992;5.924;2023-04-03T11:07:26;3.97;;;0.60;;
69401;SDS011;56589;51.992;5.924;2023-04-03T11:10:02;2.80;;;0.65;;
69401;SDS011;56589;51.992;5.924;2023-04-03T11:12:40;2.20;;;1.10;;
69401;SDS011;56589;51.992;5.924;2023-04-03T11:15:15;1.75;;;0.80;;
69401;SDS011;56589;51.992;5.924;2023-04-03T11:17:48;1.98;;;0.65;;
69401;SDS011;56589;51.992;5.924;2023-04-03T11:20:21;1.75;;;0.60;;
69401;SDS011;56589;51.992;5.924;2023-04-03T11:22:56;3.00;;;0.50;;
69401;SDS011;56589;51.992;5.924;2023-04-03T11:25:28;3.33;;;0.70;;
69401;SDS011;56589;51.992;5.924;2023-04-03T11:27:59;2.28;;;0.77;;
69401;SDS011;56589;51.992;5.924;2023-04-03T11:30:29;1.98;;;0.63;;
69401;SDS011;56589;51.992;5.924;2023-04-03T11:33:17;0.80;;;0.40;;
69401;SDS011;56589;51.992;5.924;2023-04-03T11:36:08;2.22;;;0.75;;
69401;SDS011;56589;51.992;5.924;2023-04-03T11:38:44;1.48;;;0.60;;
69401;SDS011;56589;51.992;5.924;2023-04-03T11:41:14;4.00;;;0.80;;
69401;SDS011;56589;51.992;5.924;2023-04-03T11:43:41;2.60;;;0.65;;
69401;SDS011;56589;51.992;5.924;2023-04-03T11:46:21;0.98;;;0.40;;
69401;SDS011;56589;51.992;5.924;2023-04-03T11:48:51;2.22;;;0.60;;
69401;SDS011;56589;51.992;5.924;2023-04-03T11:57:22;3.60;;;0.73;;
69401;SDS011;56589;51.992;5.924;2023-04-03T12:12:39;1.67;;;0.60;;
69401;SDS011;56589;51.992;5.924;2023-04-03T12:21:07;2.83;;;0.65;;
69401;SDS011;56589;51.992;5.924;2023-04-03T12:23:58;3.20;;;0.70;;
69401;SDS011;56589;51.992;5.924;2023-04-03T12:26:50;1.00;;;0.60;;
69401;SDS011;56589;51.992;5.924;2023-04-03T12:29:43;3.70;;;0.75;;
69401;SDS011;56589;51.992;5.924;2023-04-03T12:32:19;4.05;;;1.13;;
69401;SDS011;56589;51.992;5.924;2023-04-03T12:35:09;1.58;;;0.63;;
69401;SDS011;56589;51.992;5.924;2023-04-03T12:37:51;1.92;;;1.02;;
69401;SDS011;56589;51.992;5.924;2023-04-03T12:40:51;2.63;;;0.80;;
69401;SDS011;56589;51.992;5.924;2023-04-03T12:43:31;6.38;;;0.73;;
69401;SDS011;56589;51.992;5.924;2023-04-03T12:46:15;1.55;;;0.73;;
69401;SDS011;56589;51.992;5.924;2023-04-03T12:48:49;1.60;;;0.80;;
69401;SDS011;56589;51.992;5.924;2023-04-03T12:51:18;3.97;;;0.70;;
69401;SDS011;56589;51.992;5.924;2023-04-03T12:53:53;2.33;;;0.70;;
69401;SDS011;56589;51.992;5.924;2023-04-03T12:56:30;1.80;;;0.65;;
69401;SDS011;56589;51.992;5.924;2023-04-03T12:59:12;2.60;;;0.70;;
69401;SDS011;56589;51.992;5.924;2023-04-03T13:01:41;2.95;;;1.13;;
69401;SDS011;56589;51.992;5.924;2023-04-03T13:04:09;2.28;;;0.63;;
69401;SDS011;56589;51.992;5.924;2023-04-03T13:06:38;1.77;;;0.80;;
69401;SDS011;56589;51.992;5.924;2023-04-03T13:09:06;2.75;;;0.77;;
69401;SDS011;56589;51.992;5.924;2023-04-03T13:11:48;2.38;;;0.75;;
69401;SDS011;56589;51.992;5.924;2023-04-03T13:14:19;6.05;;;2.70;;
69401;SDS011;56589;51.992;5.924;2023-04-03T13:16:53;3.50;;;1.40;;
69401;SDS011;56589;51.992;5.924;2023-04-03T13:19:22;2.90;;;1.10;;
69401;SDS011;56589;51.992;5.924;2023-04-03T13:21:50;2.35;;;1.23;;
69401;SDS011;56589;51.992;5.924;2023-04-03T13:24:23;1.85;;;0.80;;
69401;SDS011;56589;51.992;5.924;2023-04-03T13:26:53;2.95;;;0.75;;
69401;SDS011;56589;51.992;5.924;2023-04-03T13:29:21;1.98;;;0.63;;
69401;SDS011;56589;51.992;5.924;2023-04-03T13:31:52;2.42;;;0.82;;
69401;SDS011;56589;51.992;5.924;2023-04-03T13:34:21;2.22;;;0.80;;
69401;SDS011;56589;51.992;5.924;2023-04-03T13:36:55;1.30;;;0.55;;
69401;SDS011;56589;51.992;5.924;2023-04-03T13:39:24;3.33;;;0.93;;
69401;SDS011;56589;51.992;5.924;2023-04-03T13:41:56;4.22;;;0.85;;
69401;SDS011;56589;51.992;5.924;2023-04-03T13:44:31;2.25;;;0.80;;
69401;SDS011;56589;51.992;5.924;2023-04-03T13:47:00;2.42;;;0.90;;
69401;SDS011;56589;51.992;5.924;2023-04-03T13:49:43;4.07;;;0.95;;
69401;SDS011;56589;51.992;5.924;2023-04-03T13:52:24;1.90;;;0.68;;
69401;SDS011;56589;51.992;5.924;2023-04-03T13:54:55;1.73;;;0.68;;
69401;SDS011;56589;51.992;5.924;2023-04-03T13:57:27;3.30;;;1.10;;
69401;SDS011;56589;51.992;5.924;2023-04-03T13:59:54;3.28;;;0.70;;
69401;SDS011;56589;51.992;5.924;2023-04-03T14:02:21;3.08;;;1.10;;
69401;SDS011;56589;51.992;5.924;2023-04-03T14:04:56;1.60;;;1.20;;
69401;SDS011;56589;51.992;5.924;2023-04-03T14:07:26;1.88;;;1.02;;
69401;SDS011;56589;51.992;5.924;2023-04-03T14:09:52;2.97;;;0.80;;
69401;SDS011;56589;51.992;5.924;2023-04-03T14:12:20;2.90;;;1.20;;
69401;SDS011;56589;51.992;5.924;2023-04-03T14:14:57;2.78;;;0.90;;
69401;SDS011;56589;51.992;5.924;2023-04-03T14:17:29;3.78;;;0.88;;
69401;SDS011;56589;51.992;5.924;2023-04-03T14:19:56;4.28;;;1.35;;
69401;SDS011;56589;51.992;5.924;2023-04-03T14:22:24;3.70;;;1.27;;
69401;SDS011;56589;51.992;5.924;2023-04-03T14:24:52;2.38;;;0.80;;
69401;SDS011;56589;51.992;5.924;2023-04-03T14:27:19;2.10;;;0.90;;
69401;SDS011;56589;51.992;5.924;2023-04-03T14:29:50;3.63;;;1.00;;
69401;SDS011;56589;51.992;5.924;2023-04-03T14:32:21;2.90;;;1.10;;
69401;SDS011;56589;51.992;5.924;2023-04-03T14:34:50;2.40;;;0.93;;
69401;SDS011;56589;51.992;5.924;2023-04-03T14:37:18;2.22;;;0.80;;
69401;SDS011;56589;51.992;5.924;2023-04-03T14:39:48;4.53;;;1.33;;
69401;SDS011;56589;51.992;5.924;2023-04-03T14:42:17;2.90;;;1.08;;
69401;SDS011;56589;51.992;5.924;2023-04-03T14:44:46;2.88;;;0.90;;
69401;SDS011;56589;51.992;5.924;2023-04-03T14:47:17;5.25;;;1.30;;
69401;SDS011;56589;51.992;5.924;2023-04-03T14:49:46;2.22;;;1.05;;
69401;SDS011;56589;51.992;5.924;2023-04-03T14:52:16;1.92;;;1.00;;
69401;SDS011;56589;51.992;5.924;2023-04-03T14:54:45;4.38;;;1.45;;
69401;SDS011;56589;51.992;5.924;2023-04-03T14:57:11;2.67;;;0.90;;
69401;SDS011;56589;51.992;5.924;2023-04-03T14:59:40;1.75;;;1.17;;
69401;SDS011;56589;51.992;5.924;2023-04-03T15:02:20;4.10;;;0.93;;
69401;SDS011;56589;51.992;5.924;2023-04-03T15:04:52;3.67;;;1.10;;
69401;SDS011;56589;51.992;5.924;2023-04-03T15:07:18;2.03;;;0.88;;
69401;SDS011;56589;51.992;5.924;2023-04-03T15:09:44;4.10;;;1.23;;
69401;SDS011;56589;51.992;5.924;2023-04-03T15:12:10;3.75;;;1.20;;
69401;SDS011;56589;51.992;5.924;2023-04-03T15:14:37;2.90;;;1.10;;
69401;SDS011;56589;51.992;5.924;2023-04-03T15:17:03;2.78;;;0.73;;
69401;SDS011;56589;51.992;5.924;2023-04-03T15:19:33;2.75;;;1.00;;
69401;SDS011;56589;51.992;5.924;2023-04-03T15:22:03;2.92;;;1.17;;
69401;SDS011;56589;51.992;5.924;2023-04-03T15:24:29;3.60;;;1.05;;
69401;SDS011;56589;51.992;5.924;2023-04-03T15:26:55;7.38;;;1.30;;
69401;SDS011;56589;51.992;5.924;2023-04-03T15:29:21;4.35;;;1.00;;